Altamahaw, North Carolina
Current Conditions -  °F | °C
As of 12:54 PM on Friday 28 Nov 2014 (Local Time) from KBUY Reporting Station
Clear Clear  
Wind Chill: 41°   Ceiling: Unl
Heat Index: 41°   Visibility: 10mi
Dew Point: 17°   Wind: 0mph
Humidity: 38%   Direction: NA
Pressure: 30.29"   Gusts: NA
Location:  36.18°N, 79.51°W
Report Text: KBUY 281754Z AUTO 00000KT 10SM CLR 05/M08 A3029 RMK AO2 SLP262 T00501083 10056 21044 58025
Loading
Personal Weather Stations






























Interactive Weather Map New forecast layout! Learn more

10-Day Weather Forecast

Advertisements
Track Severe Weather on mobile